sensor_id;sensor_type;location;lat;lon;timestamp;pressure;altitude;pressure_sealevel;temperature;humidity
1401;BME280;46518;48.842;8.926;2024-02-21T00:01:51;98138.72;;;6.60;94.31
1401;BME280;46518;48.842;8.926;2024-02-21T00:04:19;98150.88;;;6.75;91.92
1401;BME280;46518;48.842;8.926;2024-02-21T00:06:48;98148.38;;;6.60;92.20
1401;BME280;46518;48.842;8.926;2024-02-21T00:09:17;98142.69;;;6.50;93.38
1401;BME280;46518;48.842;8.926;2024-02-21T00:11:47;98142.56;;;6.64;93.98
1401;BME280;46518;48.842;8.926;2024-02-21T00:14:15;98133.25;;;6.55;92.93
1401;BME280;46518;48.842;8.926;2024-02-21T00:16:43;98128.47;;;6.65;93.84
1401;BME280;46518;48.842;8.926;2024-02-21T00:19:12;98117.47;;;6.77;92.98
1401;BME280;46518;48.842;8.926;2024-02-21T00:21:41;98110.81;;;6.74;91.65
1401;BME280;46518;48.842;8.926;2024-02-21T00:24:09;98111.63;;;6.81;92.65
1401;BME280;46518;48.842;8.926;2024-02-21T00:26:39;98104.81;;;6.87;91.42
1401;BME280;46518;48.842;8.926;2024-02-21T00:29:07;98111.06;;;6.93;91.49
1401;BME280;46518;48.842;8.926;2024-02-21T00:31:35;98106.09;;;6.56;92.96
1401;BME280;46518;48.842;8.926;2024-02-21T00:34:03;98105.91;;;6.58;93.09
1401;BME280;46518;48.842;8.926;2024-02-21T00:36:32;98094.25;;;6.60;93.87
1401;BME280;46518;48.842;8.926;2024-02-21T00:39:00;98081.19;;;6.60;93.40
1401;BME280;46518;48.842;8.926;2024-02-21T00:41:28;98083.66;;;6.27;94.63
1401;BME280;46518;48.842;8.926;2024-02-21T00:43:58;98081.34;;;6.11;95.61
1401;BME280;46518;48.842;8.926;2024-02-21T00:46:26;98088.44;;;6.17;95.61
1401;BME280;46518;48.842;8.926;2024-02-21T00:48:54;98081.44;;;6.31;96.65
1401;BME280;46518;48.842;8.926;2024-02-21T00:51:22;98077.75;;;6.60;96.05
1401;BME280;46518;48.842;8.926;2024-02-21T00:53:50;98072.31;;;6.61;95.11
1401;BME280;46518;48.842;8.926;2024-02-21T00:56:18;98069.63;;;6.41;94.65
1401;BME280;46518;48.842;8.926;2024-02-21T00:58:47;98068.94;;;6.19;95.32
1401;BME280;46518;48.842;8.926;2024-02-21T01:01:22;98068.84;;;6.06;97.72
1401;BME280;46518;48.842;8.926;2024-02-21T01:03:50;98065.91;;;5.88;98.96
1401;BME280;46518;48.842;8.926;2024-02-21T01:06:20;98059.25;;;5.85;99.54
1401;BME280;46518;48.842;8.926;2024-02-21T01:08:48;98049.72;;;5.71;100.00
1401;BME280;46518;48.842;8.926;2024-02-21T01:11:16;98055.72;;;5.71;100.00
1401;BME280;46518;48.842;8.926;2024-02-21T01:13:45;98049.31;;;5.74;100.00
1401;BME280;46518;48.842;8.926;2024-02-21T01:16:13;98041.41;;;5.60;100.00
1401;BME280;46518;48.842;8.926;2024-02-21T01:18:43;98032.16;;;5.58;100.00
1401;BME280;46518;48.842;8.926;2024-02-21T01:21:11;98031.44;;;5.71;100.00
1401;BME280;46518;48.842;8.926;2024-02-21T01:23:39;98028.53;;;5.59;100.00
1401;BME280;46518;48.842;8.926;2024-02-21T01:26:07;98025.56;;;5.62;100.00
1401;BME280;46518;48.842;8.926;2024-02-21T01:28:35;98028.81;;;5.71;100.00
1401;BME280;46518;48.842;8.926;2024-02-21T01:31:04;98022.00;;;5.70;100.00
1401;BME280;46518;48.842;8.926;2024-02-21T01:33:32;98019.31;;;5.63;100.00
1401;BME280;46518;48.842;8.926;2024-02-21T01:36:04;98017.09;;;5.60;100.00
1401;BME280;46518;48.842;8.926;2024-02-21T01:38:34;98006.22;;;5.56;100.00
1401;BME280;46518;48.842;8.926;2024-02-21T01:41:02;98004.44;;;5.57;100.00
1401;BME280;46518;48.842;8.926;2024-02-21T01:43:31;98011.88;;;5.60;100.00
1401;BME280;46518;48.842;8.926;2024-02-21T01:45:59;97996.78;;;5.55;100.00
1401;BME280;46518;48.842;8.926;2024-02-21T01:48:27;98000.88;;;5.65;100.00
1401;BME280;46518;48.842;8.926;2024-02-21T01:50:56;97997.41;;;5.64;100.00
1401;BME280;46518;48.842;8.926;2024-02-21T01:53:29;97994.16;;;5.90;99.92
1401;BME280;46518;48.842;8.926;2024-02-21T01:55:58;97987.44;;;6.02;98.08
1401;BME280;46518;48.842;8.926;2024-02-21T01:58:28;97983.66;;;6.18;98.15
1401;BME280;46518;48.842;8.926;2024-02-21T02:00:57;97982.00;;;6.04;97.87
1401;BME280;46518;48.842;8.926;2024-02-21T02:03:25;97979.38;;;6.04;97.78
1401;BME280;46518;48.842;8.926;2024-02-21T02:05:54;97968.16;;;6.10;97.64
1401;BME280;46518;48.842;8.926;2024-02-21T02:08:22;97968.97;;;6.11;96.96
1401;BME280;46518;48.842;8.926;2024-02-21T02:10:52;97967.09;;;5.98;97.12
1401;BME280;46518;48.842;8.926;2024-02-21T02:13:20;97961.28;;;6.02;97.26
1401;BME280;46518;48.842;8.926;2024-02-21T02:15:49;97952.66;;;6.02;97.78
1401;BME280;46518;48.842;8.926;2024-02-21T02:18:19;97943.66;;;5.76;99.42
1401;BME280;46518;48.842;8.926;2024-02-21T02:20:47;97950.94;;;5.88;100.00
1401;BME280;46518;48.842;8.926;2024-02-21T02:23:24;97942.22;;;5.74;100.00
1401;BME280;46518;48.842;8.926;2024-02-21T02:25:52;97932.84;;;5.79;100.00
1401;BME280;46518;48.842;8.926;2024-02-21T02:28:21;97921.91;;;5.62;100.00
1401;BME280;46518;48.842;8.926;2024-02-21T02:30:50;97912.44;;;5.61;100.00
1401;BME280;46518;48.842;8.926;2024-02-21T02:33:18;97902.56;;;5.50;100.00
1401;BME280;46518;48.842;8.926;2024-02-21T02:35:47;97896.66;;;5.41;100.00
1401;BME280;46518;48.842;8.926;2024-02-21T02:38:15;97899.72;;;5.45;100.00
1401;BME280;46518;48.842;8.926;2024-02-21T02:40:45;97917.22;;;5.51;100.00
1401;BME280;46518;48.842;8.926;2024-02-21T02:43:13;97930.31;;;5.58;100.00
1401;BME280;46518;48.842;8.926;2024-02-21T02:45:41;97938.66;;;5.40;100.00
1401;BME280;46518;48.842;8.926;2024-02-21T02:48:09;97919.69;;;5.25;100.00
1401;BME280;46518;48.842;8.926;2024-02-21T02:50:38;97923.50;;;5.29;100.00
1401;BME280;46518;48.842;8.926;2024-02-21T02:53:06;97925.75;;;5.32;100.00
1401;BME280;46518;48.842;8.926;2024-02-21T02:55:34;97913.19;;;5.49;100.00
1401;BME280;46518;48.842;8.926;2024-02-21T02:58:04;97916.88;;;5.61;100.00
1401;BME280;46518;48.842;8.926;2024-02-21T03:00:32;97922.69;;;5.63;100.00
1401;BME280;46518;48.842;8.926;2024-02-21T03:03:03;97927.06;;;5.49;100.00
1401;BME280;46518;48.842;8.926;2024-02-21T03:05:31;97912.59;;;5.53;100.00
1401;BME280;46518;48.842;8.926;2024-02-21T03:08:00;97906.19;;;5.49;100.00
1401;BME280;46518;48.842;8.926;2024-02-21T03:10:28;97896.66;;;5.41;100.00
1401;BME280;46518;48.842;8.926;2024-02-21T03:12:56;97894.03;;;5.35;100.00
1401;BME280;46518;48.842;8.926;2024-02-21T03:15:26;97894.06;;;5.41;100.00
1401;BME280;46518;48.842;8.926;2024-02-21T03:17:54;97890.19;;;5.31;100.00
1401;BME280;46518;48.842;8.926;2024-02-21T03:20:22;97882.59;;;5.36;100.00
1401;BME280;46518;48.842;8.926;2024-02-21T03:22:50;97884.81;;;5.39;100.00
1401;BME280;46518;48.842;8.926;2024-02-21T03:25:18;97873.38;;;5.40;100.00
1401;BME280;46518;48.842;8.926;2024-02-21T03:27:46;97881.47;;;5.52;100.00
1401;BME280;46518;48.842;8.926;2024-02-21T03:30:15;97880.53;;;5.66;100.00
1401;BME280;46518;48.842;8.926;2024-02-21T03:32:44;97878.94;;;5.65;100.00
1401;BME280;46518;48.842;8.926;2024-02-21T03:35:12;97882.34;;;5.66;100.00
1401;BME280;46518;48.842;8.926;2024-02-21T03:37:40;97884.19;;;5.78;100.00
1401;BME280;46518;48.842;8.926;2024-02-21T03:40:10;97884.59;;;5.75;100.00
1401;BME280;46518;48.842;8.926;2024-02-21T03:42:38;97883.00;;;5.74;100.00
1401;BME280;46518;48.842;8.926;2024-02-21T03:45:07;97876.47;;;5.57;100.00
1401;BME280;46518;48.842;8.926;2024-02-21T03:47:35;97872.47;;;5.54;100.00
1401;BME280;46518;48.842;8.926;2024-02-21T03:50:06;97858.31;;;5.35;100.00
1401;BME280;46518;48.842;8.926;2024-02-21T03:52:34;97864.19;;;5.09;100.00
1401;BME280;46518;48.842;8.926;2024-02-21T03:55:02;97864.31;;;5.29;100.00
1401;BME280;46518;48.842;8.926;2024-02-21T03:57:30;97869.84;;;5.54;100.00
1401;BME280;46518;48.842;8.926;2024-02-21T03:59:58;97859.63;;;5.59;100.00
1401;BME280;46518;48.842;8.926;2024-02-21T04:02:26;97851.75;;;5.53;100.00
1401;BME280;46518;48.842;8.926;2024-02-21T04:04:55;97853.78;;;5.16;100.00
1401;BME280;46518;48.842;8.926;2024-02-21T04:07:24;97851.09;;;5.03;100.00
1401;BME280;46518;48.842;8.926;2024-02-21T04:09:53;97837.59;;;4.92;100.00
1401;BME280;46518;48.842;8.926;2024-02-21T04:12:21;97826.34;;;4.92;100.00
1401;BME280;46518;48.842;8.926;2024-02-21T04:14:49;97828.53;;;4.88;100.00
1401;BME280;46518;48.842;8.926;2024-02-21T04:17:17;97826.72;;;4.89;100.00
1401;BME280;46518;48.842;8.926;2024-02-21T04:19:45;97840.38;;;4.91;100.00
1401;BME280;46518;48.842;8.926;2024-02-21T04:22:14;97845.59;;;4.91;100.00
1401;BME280;46518;48.842;8.926;2024-02-21T04:24:44;97841.78;;;4.93;100.00
1401;BME280;46518;48.842;8.926;2024-02-21T04:27:12;97838.78;;;4.90;100.00
1401;BME280;46518;48.842;8.926;2024-02-21T04:29:40;97833.00;;;5.01;100.00
1401;BME280;46518;48.842;8.926;2024-02-21T04:32:08;97834.88;;;5.07;100.00
1401;BME280;46518;48.842;8.926;2024-02-21T04:34:36;97834.03;;;5.00;100.00
1401;BME280;46518;48.842;8.926;2024-02-21T04:37:05;97838.84;;;5.03;100.00
1401;BME280;46518;48.842;8.926;2024-02-21T04:39:33;97843.69;;;5.06;100.00
1401;BME280;46518;48.842;8.926;2024-02-21T04:42:03;97837.81;;;4.97;100.00
1401;BME280;46518;48.842;8.926;2024-02-21T04:44:31;97845.56;;;4.84;100.00
1401;BME280;46518;48.842;8.926;2024-02-21T04:46:59;97840.13;;;4.86;100.00
1401;BME280;46518;48.842;8.926;2024-02-21T04:49:29;97835.78;;;4.93;100.00
1401;BME280;46518;48.842;8.926;2024-02-21T04:51:57;97830.00;;;4.97;100.00
1401;BME280;46518;48.842;8.926;2024-02-21T04:54:25;97831.56;;;4.92;100.00
1401;BME280;46518;48.842;8.926;2024-02-21T04:56:53;97829.19;;;4.97;100.00
1401;BME280;46518;48.842;8.926;2024-02-21T04:59:23;97832.66;;;5.04;100.00
1401;BME280;46518;48.842;8.926;2024-02-21T05:01:52;97828.00;;;5.00;100.00
1401;BME280;46518;48.842;8.926;2024-02-21T05:04:20;97812.53;;;4.98;100.00
1401;BME280;46518;48.842;8.926;2024-02-21T05:06:48;97814.69;;;4.88;100.00
1401;BME280;46518;48.842;8.926;2024-02-21T05:09:16;97815.00;;;4.78;100.00
1401;BME280;46518;48.842;8.926;2024-02-21T05:11:44;97821.47;;;4.82;100.00
1401;BME280;46518;48.842;8.926;2024-02-21T05:14:12;97816.59;;;5.07;100.00
1401;BME280;46518;48.842;8.926;2024-02-21T05:16:41;97813.88;;;5.22;100.00
1401;BME280;46518;48.842;8.926;2024-02-21T05:19:10;97797.91;;;5.04;100.00
1401;BME280;46518;48.842;8.926;2024-02-21T05:21:38;97786.16;;;4.80;100.00
1401;BME280;46518;48.842;8.926;2024-02-21T05:24:06;97778.47;;;4.71;100.00
1401;BME280;46518;48.842;8.926;2024-02-21T05:26:34;97766.44;;;4.70;100.00
1401;BME280;46518;48.842;8.926;2024-02-21T05:29:02;97763.97;;;4.62;100.00
1401;BME280;46518;48.842;8.926;2024-02-21T05:31:54;97764.22;;;4.74;100.00
1401;BME280;46518;48.842;8.926;2024-02-21T05:34:23;97760.81;;;4.67;100.00
1401;BME280;46518;48.842;8.926;2024-02-21T05:36:52;97761.13;;;4.57;100.00
1401;BME280;46518;48.842;8.926;2024-02-21T05:39:21;97745.69;;;4.56;100.00
1401;BME280;46518;48.842;8.926;2024-02-21T05:41:50;97752.53;;;4.63;100.00
1401;BME280;46518;48.842;8.926;2024-02-21T05:44:19;97762.81;;;4.71;100.00
1401;BME280;46518;48.842;8.926;2024-02-21T05:46:50;97759.63;;;4.69;100.00
1401;BME280;46518;48.842;8.926;2024-02-21T05:49:18;97760.53;;;4.90;100.00
1401;BME280;46518;48.842;8.926;2024-02-21T05:51:46;97755.50;;;4.88;100.00
1401;BME280;46518;48.842;8.926;2024-02-21T05:54:15;97765.81;;;5.03;100.00
1401;BME280;46518;48.842;8.926;2024-02-21T05:56:44;97763.63;;;5.07;100.00
1401;BME280;46518;48.842;8.926;2024-02-21T05:59:13;97777.59;;;4.99;100.00
1401;BME280;46518;48.842;8.926;2024-02-21T06:01:41;97769.94;;;4.84;100.00
1401;BME280;46518;48.842;8.926;2024-02-21T06:04:11;97763.75;;;4.57;100.00
1401;BME280;46518;48.842;8.926;2024-02-21T06:06:39;97755.47;;;4.47;100.00
1401;BME280;46518;48.842;8.926;2024-02-21T06:09:08;97753.59;;;4.41;100.00
1401;BME280;46518;48.842;8.926;2024-02-21T06:11:36;97747.75;;;4.32;100.00
1401;BME280;46518;48.842;8.926;2024-02-21T06:14:07;97753.97;;;4.38;100.00
1401;BME280;46518;48.842;8.926;2024-02-21T06:16:35;97748.22;;;4.42;100.00
1401;BME280;46518;48.842;8.926;2024-02-21T06:19:03;97766.41;;;4.36;100.00
1401;BME280;46518;48.842;8.926;2024-02-21T06:21:37;97777.22;;;4.39;100.00
1401;BME280;46518;48.842;8.926;2024-02-21T06:24:05;97778.72;;;4.48;100.00
1401;BME280;46518;48.842;8.926;2024-02-21T06:26:33;97771.97;;;4.61;100.00
1401;BME280;46518;48.842;8.926;2024-02-21T06:29:01;97771.47;;;4.79;100.00
1401;BME280;46518;48.842;8.926;2024-02-21T06:31:29;97765.44;;;4.43;100.00
1401;BME280;46518;48.842;8.926;2024-02-21T06:33:58;97763.47;;;4.45;100.00
1401;BME280;46518;48.842;8.926;2024-02-21T06:36:27;97765.28;;;4.51;100.00
1401;BME280;46518;48.842;8.926;2024-02-21T06:38:56;97751.91;;;4.54;100.00
1401;BME280;46518;48.842;8.926;2024-02-21T06:41:24;97753.22;;;4.79;100.00
1401;BME280;46518;48.842;8.926;2024-02-21T06:43:52;97751.91;;;4.96;100.00
1401;BME280;46518;48.842;8.926;2024-02-21T06:46:24;97754.75;;;4.94;100.00
1401;BME280;46518;48.842;8.926;2024-02-21T06:48:53;97751.50;;;4.92;100.00
1401;BME280;46518;48.842;8.926;2024-02-21T06:51:24;97741.94;;;4.65;100.00
1401;BME280;46518;48.842;8.926;2024-02-21T06:53:52;97744.88;;;4.55;100.00
1401;BME280;46518;48.842;8.926;2024-02-21T06:56:23;97756.72;;;4.58;100.00
1401;BME280;46518;48.842;8.926;2024-02-21T06:58:55;97752.09;;;4.53;100.00
1401;BME280;46518;48.842;8.926;2024-02-21T07:01:24;97744.16;;;4.68;100.00
1401;BME280;46518;48.842;8.926;2024-02-21T07:03:52;97740.31;;;4.64;100.00
1401;BME280;46518;48.842;8.926;2024-02-21T07:06:20;97725.72;;;4.69;100.00
1401;BME280;46518;48.842;8.926;2024-02-21T07:08:48;97720.63;;;4.61;100.00
1401;BME280;46518;48.842;8.926;2024-02-21T07:11:17;97726.53;;;4.70;100.00
1401;BME280;46518;48.842;8.926;2024-02-21T07:13:46;97731.75;;;4.76;100.00
1401;BME280;46518;48.842;8.926;2024-02-21T07:16:14;97723.00;;;4.84;100.00
1401;BME280;46518;48.842;8.926;2024-02-21T07:18:43;97725.56;;;4.78;100.00
1401;BME280;46518;48.842;8.926;2024-02-21T07:21:11;97728.84;;;4.93;100.00
1401;BME280;46518;48.842;8.926;2024-02-21T07:23:40;97728.88;;;5.00;100.00
1401;BME280;46518;48.842;8.926;2024-02-21T07:26:08;97726.88;;;5.08;100.00
1401;BME280;46518;48.842;8.926;2024-02-21T07:28:37;97722.94;;;5.26;100.00
1401;BME280;46518;48.842;8.926;2024-02-21T07:31:06;97719.56;;;5.38;100.00
1401;BME280;46518;48.842;8.926;2024-02-21T07:33:34;97715.94;;;5.33;100.00
1401;BME280;46518;48.842;8.926;2024-02-21T07:36:06;97707.34;;;5.52;100.00
1401;BME280;46518;48.842;8.926;2024-02-21T07:38:34;97710.19;;;5.71;100.00
1401;BME280;46518;48.842;8.926;2024-02-21T07:41:02;97698.56;;;5.67;100.00
1401;BME280;46518;48.842;8.926;2024-02-21T07:43:31;97700.75;;;5.70;100.00
1401;BME280;46518;48.842;8.926;2024-02-21T07:45:59;97697.31;;;5.62;100.00
1401;BME280;46518;48.842;8.926;2024-02-21T07:48:28;97697.72;;;5.66;100.00
1401;BME280;46518;48.842;8.926;2024-02-21T07:51:01;97695.94;;;5.73;100.00
1401;BME280;46518;48.842;8.926;2024-02-21T07:53:29;97696.53;;;5.75;99.85
1401;BME280;46518;48.842;8.926;2024-02-21T07:55:57;97686.47;;;5.79;98.67
1401;BME280;46518;48.842;8.926;2024-02-21T07:58:25;97689.09;;;5.72;98.71
1401;BME280;46518;48.842;8.926;2024-02-21T08:00:53;97689.50;;;5.76;100.00
1401;BME280;46518;48.842;8.926;2024-02-21T08:03:22;97695.53;;;5.76;99.58
1401;BME280;46518;48.842;8.926;2024-02-21T08:05:54;97694.31;;;5.79;98.79
1401;BME280;46518;48.842;8.926;2024-02-21T08:08:22;97698.94;;;5.83;98.31
1401;BME280;46518;48.842;8.926;2024-02-21T08:10:50;97694.53;;;5.84;97.08
1401;BME280;46518;48.842;8.926;2024-02-21T08:13:19;97700.97;;;6.01;97.19
1401;BME280;46518;48.842;8.926;2024-02-21T08:15:47;97697.56;;;6.34;94.94
1401;BME280;46518;48.842;8.926;2024-02-21T08:18:15;97694.94;;;6.41;94.63
1401;BME280;46518;48.842;8.926;2024-02-21T08:20:43;97692.06;;;6.56;93.15
1401;BME280;46518;48.842;8.926;2024-02-21T08:23:15;97683.09;;;6.25;93.64
1401;BME280;46518;48.842;8.926;2024-02-21T08:25:44;97685.44;;;6.53;93.11
1401;BME280;46518;48.842;8.926;2024-02-21T08:28:13;97677.94;;;6.77;91.57
1401;BME280;46518;48.842;8.926;2024-02-21T08:30:42;97674.13;;;6.73;91.52
1401;BME280;46518;48.842;8.926;2024-02-21T08:33:15;97674.56;;;6.56;94.38
1401;BME280;46518;48.842;8.926;2024-02-21T08:35:44;97661.47;;;6.63;94.57
1401;BME280;46518;48.842;8.926;2024-02-21T08:38:13;97661.91;;;6.60;96.11
1401;BME280;46518;48.842;8.926;2024-02-21T08:40:41;97659.09;;;6.55;94.08
1401;BME280;46518;48.842;8.926;2024-02-21T08:43:10;97652.25;;;6.60;93.90
1401;BME280;46518;48.842;8.926;2024-02-21T08:45:38;97654.44;;;6.63;94.71
1401;BME280;46518;48.842;8.926;2024-02-21T08:48:06;97651.63;;;6.65;91.89
1401;BME280;46518;48.842;8.926;2024-02-21T08:50:35;97650.22;;;6.62;91.86
1401;BME280;46518;48.842;8.926;2024-02-21T08:53:03;97647.19;;;6.65;92.04
1401;BME280;46518;48.842;8.926;2024-02-21T08:55:33;97642.75;;;6.66;92.92
1401;BME280;46518;48.842;8.926;2024-02-21T08:58:03;97644.50;;;6.79;93.67
1401;BME280;46518;48.842;8.926;2024-02-21T09:00:31;97637.28;;;6.81;93.13
1401;BME280;46518;48.842;8.926;2024-02-21T09:02:59;97632.44;;;6.84;91.97
1401;BME280;46518;48.842;8.926;2024-02-21T09:05:27;97641.63;;;6.94;92.21
1401;BME280;46518;48.842;8.926;2024-02-21T09:07:56;97641.00;;;7.05;93.26
1401;BME280;46518;48.842;8.926;2024-02-21T09:10:24;97638.41;;;6.98;90.13
1401;BME280;46518;48.842;8.926;2024-02-21T09:12:53;97638.19;;;7.00;90.12
1401;BME280;46518;48.842;8.926;2024-02-21T09:15:22;97637.53;;;7.11;87.71
1401;BME280;46518;48.842;8.926;2024-02-21T09:17:51;97631.22;;;7.19;88.21
1401;BME280;46518;48.842;8.926;2024-02-21T09:20:19;97625.72;;;7.33;90.66
1401;BME280;46518;48.842;8.926;2024-02-21T09:22:47;97621.78;;;7.49;88.01
1401;BME280;46518;48.842;8.926;2024-02-21T09:25:15;97623.22;;;7.45;88.75
1401;BME280;46518;48.842;8.926;2024-02-21T09:27:44;97623.03;;;7.47;87.43
1401;BME280;46518;48.842;8.926;2024-02-21T09:30:14;97617.94;;;7.52;88.49
1401;BME280;46518;48.842;8.926;2024-02-21T09:32:42;97618.22;;;7.69;89.84
1401;BME280;46518;48.842;8.926;2024-02-21T09:35:10;97614.41;;;7.90;88.08
1401;BME280;46518;48.842;8.926;2024-02-21T09:37:39;97615.13;;;8.22;87.36
1401;BME280;46518;48.842;8.926;2024-02-21T09:40:09;97607.31;;;8.15;86.42
1401;BME280;46518;48.842;8.926;2024-02-21T09:42:38;97599.09;;;8.12;86.89
1401;BME280;46518;48.842;8.926;2024-02-21T09:45:09;97596.84;;;8.34;86.97
1401;BME280;46518;48.842;8.926;2024-02-21T09:47:53;97584.72;;;8.33;84.03
1401;BME280;46518;48.842;8.926;2024-02-21T09:50:24;97583.88;;;8.39;83.50
1401;BME280;46518;48.842;8.926;2024-02-21T09:52:54;97584.44;;;8.78;81.10
1401;BME280;46518;48.842;8.926;2024-02-21T09:55:22;97577.19;;;8.92;79.82
1401;BME280;46518;48.842;8.926;2024-02-21T09:57:51;97584.09;;;8.74;79.45
1401;BME280;46518;48.842;8.926;2024-02-21T10:00:20;97578.13;;;8.97;80.18
1401;BME280;46518;48.842;8.926;2024-02-21T10:02:51;97579.84;;;9.03;77.18
1401;BME280;46518;48.842;8.926;2024-02-21T10:05:19;97577.00;;;9.05;79.08
1401;BME280;46518;48.842;8.926;2024-02-21T10:07:48;97574.56;;;9.45;77.88
1401;BME280;46518;48.842;8.926;2024-02-21T10:10:17;97559.72;;;9.39;75.04
1401;BME280;46518;48.842;8.926;2024-02-21T10:12:49;97562.94;;;9.65;73.10
1401;BME280;46518;48.842;8.926;2024-02-21T10:15:20;97565.59;;;9.77;71.07
1401;BME280;46518;48.842;8.926;2024-02-21T10:17:58;97555.66;;;9.67;70.58
1401;BME280;46518;48.842;8.926;2024-02-21T10:20:27;97548.31;;;9.92;74.48
1401;BME280;46518;48.842;8.926;2024-02-21T10:23:00;97547.16;;;10.00;71.84
1401;BME280;46518;48.842;8.926;2024-02-21T10:25:29;97544.88;;;9.92;70.75
1401;BME280;46518;48.842;8.926;2024-02-21T10:27:57;97542.28;;;9.68;70.74
1401;BME280;46518;48.842;8.926;2024-02-21T10:30:25;97539.63;;;10.04;70.04
1401;BME280;46518;48.842;8.926;2024-02-21T10:32:54;97533.81;;;9.78;73.78
1401;BME280;46518;48.842;8.926;2024-02-21T10:35:27;97542.72;;;9.77;70.75
1401;BME280;46518;48.842;8.926;2024-02-21T10:37:56;97537.78;;;10.16;68.50
1401;BME280;46518;48.842;8.926;2024-02-21T10:40:25;97529.13;;;10.04;70.93
1401;BME280;46518;48.842;8.926;2024-02-21T10:42:56;97532.53;;;9.92;68.24
1401;BME280;46518;48.842;8.926;2024-02-21T10:45:29;97521.91;;;10.11;72.14
1401;BME280;46518;48.842;8.926;2024-02-21T10:48:08;97524.78;;;9.74;69.27
1401;BME280;46518;48.842;8.926;2024-02-21T10:50:47;97512.81;;;9.66;68.19
1401;BME280;46518;48.842;8.926;2024-02-21T10:53:32;97512.41;;;10.10;68.90
1401;BME280;46518;48.842;8.926;2024-02-21T10:56:11;97503.41;;;9.94;68.71
1401;BME280;46518;48.842;8.926;2024-02-21T10:58:44;97509.34;;;9.78;69.37
1401;BME280;46518;48.842;8.926;2024-02-21T11:01:13;97505.97;;;10.18;70.68
1401;BME280;46518;48.842;8.926;2024-02-21T11:03:46;97498.75;;;10.25;66.35
1401;BME280;46518;48.842;8.926;2024-02-21T11:06:15;97498.47;;;10.50;65.04
1401;BME280;46518;48.842;8.926;2024-02-21T11:08:44;97488.28;;;10.53;65.70
1401;BME280;46518;48.842;8.926;2024-02-21T11:11:12;97483.03;;;10.53;68.65
1401;BME280;46518;48.842;8.926;2024-02-21T11:14:05;97475.22;;;10.75;63.57
1401;BME280;46518;48.842;8.926;2024-02-21T11:16:37;97463.41;;;10.78;63.68
1401;BME280;46518;48.842;8.926;2024-02-21T11:19:09;97465.56;;;10.35;66.09
1401;BME280;46518;48.842;8.926;2024-02-21T11:21:38;97450.56;;;10.65;64.45
1401;BME280;46518;48.842;8.926;2024-02-21T11:24:08;97453.25;;;10.98;66.68
1401;BME280;46518;48.842;8.926;2024-02-21T11:26:37;97445.81;;;10.95;64.63
1401;BME280;46518;48.842;8.926;2024-02-21T11:29:06;97446.88;;;10.66;64.34
1401;BME280;46518;48.842;8.926;2024-02-21T11:31:39;97438.09;;;10.89;65.24
1401;BME280;46518;48.842;8.926;2024-02-21T11:34:10;97429.13;;;11.23;64.90
1401;BME280;46518;48.842;8.926;2024-02-21T11:36:49;97430.31;;;11.33;63.62
1401;BME280;46518;48.842;8.926;2024-02-21T11:39:19;97423.59;;;11.08;61.14
1401;BME280;46518;48.842;8.926;2024-02-21T11:42:02;97429.19;;;10.61;62.36
1401;BME280;46518;48.842;8.926;2024-02-21T11:44:31;97417.88;;;10.94;62.88
1401;BME280;46518;48.842;8.926;2024-02-21T11:46:59;97413.97;;;10.97;66.72
1401;BME280;46518;48.842;8.926;2024-02-21T11:49:30;97413.25;;;10.85;62.19
1401;BME280;46518;48.842;8.926;2024-02-21T11:51:59;97403.19;;;11.15;60.72
1401;BME280;46518;48.842;8.926;2024-02-21T11:54:31;97395.94;;;11.44;60.58
1401;BME280;46518;48.842;8.926;2024-02-21T11:57:00;97389.16;;;11.71;60.12
1401;BME280;46518;48.842;8.926;2024-02-21T11:59:34;97383.03;;;11.65;58.96
1401;BME280;46518;48.842;8.926;2024-02-21T12:02:03;97384.91;;;11.48;59.89
1401;BME280;46518;48.842;8.926;2024-02-21T12:04:33;97379.22;;;11.78;59.27
1401;BME280;46518;48.842;8.926;2024-02-21T12:07:02;97371.25;;;11.73;60.38
1401;BME280;46518;48.842;8.926;2024-02-21T12:09:31;97358.13;;;11.78;62.27
1401;BME280;46518;48.842;8.926;2024-02-21T12:12:01;97354.81;;;11.87;61.83
1401;BME280;46518;48.842;8.926;2024-02-21T12:14:31;97343.41;;;11.82;61.36
1401;BME280;46518;48.842;8.926;2024-02-21T12:17:00;97335.13;;;12.22;58.38
1401;BME280;46518;48.842;8.926;2024-02-21T12:19:32;97338.00;;;12.16;57.39
1401;BME280;46518;48.842;8.926;2024-02-21T12:22:01;97338.09;;;12.26;57.74
1401;BME280;46518;48.842;8.926;2024-02-21T12:24:33;97325.00;;;12.41;58.00
1401;BME280;46518;48.842;8.926;2024-02-21T12:27:02;97327.53;;;12.58;55.74
1401;BME280;46518;48.842;8.926;2024-02-21T12:29:32;97309.16;;;12.73;53.68
1401;BME280;46518;48.842;8.926;2024-02-21T12:32:00;97308.50;;;12.93;54.52
1401;BME280;46518;48.842;8.926;2024-02-21T12:34:32;97305.56;;;12.52;54.40
1401;BME280;46518;48.842;8.926;2024-02-21T12:37:18;97301.47;;;12.35;55.94
1401;BME280;46518;48.842;8.926;2024-02-21T12:39:48;97289.28;;;12.61;54.86
1401;BME280;46518;48.842;8.926;2024-02-21T12:42:15;97288.97;;;13.00;55.13
1401;BME280;46518;48.842;8.926;2024-02-21T12:44:44;97289.00;;;13.10;53.25
1401;BME280;46518;48.842;8.926;2024-02-21T12:47:12;97281.50;;;13.39;52.94
1401;BME280;46518;48.842;8.926;2024-02-21T12:49:42;97267.97;;;13.30;51.59
1401;BME280;46518;48.842;8.926;2024-02-21T12:52:12;97269.84;;;13.30;53.07
1401;BME280;46518;48.842;8.926;2024-02-21T12:54:41;97260.81;;;13.26;49.88
1401;BME280;46518;48.842;8.926;2024-02-21T12:57:09;97257.81;;;13.02;51.97
1401;BME280;46518;48.842;8.926;2024-02-21T12:59:37;97248.66;;;13.25;52.96
1401;BME280;46518;48.842;8.926;2024-02-21T13:02:06;97252.47;;;13.49;51.06
1401;BME280;46518;48.842;8.926;2024-02-21T13:04:35;97243.75;;;13.49;49.54
1401;BME280;46518;48.842;8.926;2024-02-21T13:07:09;97231.59;;;13.58;48.57
1401;BME280;46518;48.842;8.926;2024-02-21T13:09:37;97232.59;;;13.31;48.68
1401;BME280;46518;48.842;8.926;2024-02-21T13:12:05;97225.00;;;13.55;47.53
1401;BME280;46518;48.842;8.926;2024-02-21T13:14:34;97227.22;;;13.16;48.03
1401;BME280;46518;48.842;8.926;2024-02-21T13:17:06;97214.53;;;12.60;45.51
1401;BME280;46518;48.842;8.926;2024-02-21T13:19:34;97220.53;;;12.93;46.33
1401;BME280;46518;48.842;8.926;2024-02-21T13:22:03;97214.53;;;13.13;48.11
1401;BME280;46518;48.842;8.926;2024-02-21T13:24:32;97196.13;;;13.33;47.36
1401;BME280;46518;48.842;8.926;2024-02-21T13:27:01;97195.84;;;13.35;45.65